Terminal Aerodrome Forecast
Issued by NWS

Home | Current Version | Previous Version | Text Only | Print | Product List | Glossary On
Versions: 1 2 3 4 5 6 7 8 9 10 11 12 13
000
FTUS44 KOUN 282320
TAFCSM
TAF
KCSM 282320Z 2900/2924 13008KT P6SM VCTS FEW035CB SCT120 SCT250
      TEMPO 2901/2902 VRB25G35KT 3SM TSRA BKN035CB
     FM290200 13007KT P6SM VCSH SCT050 OVC100
     FM290600 11005KT P6SM BKN120 BKN250=

USA.gov is the U.S. government's official web portal to all federal, state and local government web resources and services.